createdAt,value
2018-12-19T00:02:01.162Z,9.50
2018-12-19T00:04:45.307Z,12.90
2018-12-19T00:07:28.989Z,8.70
2018-12-19T00:10:11.266Z,9.97
2018-12-19T00:12:53.215Z,11.17
2018-12-19T00:15:35.160Z,8.73
2018-12-19T00:18:17.266Z,8.43
2018-12-19T00:20:59.465Z,9.37
2018-12-19T00:23:42.255Z,7.40
2018-12-19T00:26:24.189Z,9.87
2018-12-19T00:29:08.314Z,7.23
2018-12-19T00:31:52.466Z,10.47
2018-12-19T00:34:36.774Z,9.43
2018-12-19T00:37:19.078Z,8.03
2018-12-19T00:40:01.166Z,9.17
2018-12-19T00:42:43.416Z,8.83
2018-12-19T00:45:25.204Z,8.00
2018-12-19T00:48:07.994Z,11.50
2018-12-19T00:50:50.318Z,9.30
2018-12-19T00:53:32.218Z,10.80
2018-12-19T00:56:14.506Z,12.47
2018-12-19T00:58:56.623Z,10.13
2018-12-19T01:01:38.494Z,12.20
2018-12-19T01:04:20.588Z,10.90
2018-12-19T01:07:02.695Z,12.00
2018-12-19T01:09:44.577Z,13.73
2018-12-19T01:12:26.898Z,13.23
2018-12-19T01:15:08.885Z,13.53
2018-12-19T01:17:50.666Z,14.03
2018-12-19T01:20:32.802Z,9.50
2018-12-19T01:23:14.794Z,13.03
2018-12-19T01:25:56.609Z,11.33
2018-12-19T01:28:38.535Z,15.30
2018-12-19T01:31:20.584Z,13.43
2018-12-19T01:34:02.631Z,12.80
2018-12-19T01:36:44.725Z,11.93
2018-12-19T01:39:26.479Z,9.27
2018-12-19T01:42:08.566Z,10.40
2018-12-19T01:44:50.598Z,14.00
2018-12-19T01:47:32.464Z,14.87
2018-12-19T01:50:14.202Z,9.57
2018-12-19T01:52:56.274Z,11.93
2018-12-19T01:55:38.120Z,15.27
2018-12-19T01:58:20.273Z,11.33
2018-12-19T02:01:02.430Z,11.53
2018-12-19T02:03:44.603Z,9.97
2018-12-19T02:06:26.782Z,14.10
2018-12-19T02:09:08.741Z,10.97
2018-12-19T02:11:50.827Z,12.87
2018-12-19T02:14:32.677Z,10.60
2018-12-19T02:17:14.979Z,10.60
2018-12-19T02:19:57.034Z,11.50
2018-12-19T02:22:39.387Z,12.97
2018-12-19T02:25:21.374Z,13.57
2018-12-19T02:28:03.215Z,15.17
2018-12-19T02:30:45.382Z,16.20
2018-12-19T02:33:27.713Z,18.07
2018-12-19T02:36:09.712Z,13.40
2018-12-19T02:38:51.931Z,15.03
2018-12-19T02:41:34.095Z,15.30
2018-12-19T02:44:15.960Z,16.27
2018-12-19T02:46:57.806Z,12.53
2018-12-19T02:49:39.869Z,14.70
2018-12-19T02:52:21.781Z,22.77
2018-12-19T02:55:03.971Z,16.53
2018-12-19T02:57:45.638Z,18.80
2018-12-19T03:00:27.961Z,19.70
2018-12-19T03:03:09.954Z,13.20
2018-12-19T03:05:52.201Z,14.43
2018-12-19T03:08:34.131Z,18.10
2018-12-19T03:11:16.371Z,15.27
2018-12-19T03:13:58.190Z,13.83
2018-12-19T03:16:40.189Z,15.50
2018-12-19T03:19:22.021Z,17.80
2018-12-19T03:22:04.217Z,17.73
2018-12-19T03:24:46.120Z,16.73
2018-12-19T03:27:27.854Z,15.00
2018-12-19T03:30:10.032Z,17.60
2018-12-19T03:32:52.079Z,15.27
2018-12-19T03:35:33.858Z,11.60
2018-12-19T03:38:21.254Z,11.67
2018-12-19T03:41:02.903Z,14.67
2018-12-19T03:43:45.048Z,15.27
2018-12-19T03:46:26.998Z,17.33
2018-12-19T03:49:09.117Z,12.77
2018-12-19T03:51:51.310Z,11.63
2018-12-19T03:54:33.338Z,13.20
2018-12-19T03:57:15.419Z,14.50
2018-12-19T03:59:57.339Z,12.77
2018-12-19T04:02:39.466Z,12.73
2018-12-19T04:05:21.202Z,13.10
2018-12-19T04:08:03.455Z,12.87
2018-12-19T04:10:45.454Z,13.93
2018-12-19T04:13:27.627Z,11.77
2018-12-19T04:16:09.498Z,10.73
2018-12-19T04:22:06.064Z,13.37
2018-12-19T04:24:48.366Z,11.97
2018-12-19T04:27:30.310Z,12.23
2018-12-19T04:30:12.494Z,13.37
2018-12-19T04:32:54.699Z,8.73
2018-12-19T04:35:36.634Z,13.17
2018-12-19T04:38:18.575Z,8.47
2018-12-19T04:41:00.663Z,10.00
2018-12-19T04:43:42.608Z,10.67
2018-12-19T04:46:24.501Z,26.97
2018-12-19T04:49:06.424Z,11.63
2018-12-19T04:51:48.420Z,10.33
2018-12-19T04:54:30.463Z,9.23
2018-12-19T04:57:12.390Z,11.37
2018-12-19T04:59:54.382Z,13.27
2018-12-19T05:02:36.447Z,14.10
2018-12-19T05:05:18.352Z,12.23
2018-12-19T05:08:00.664Z,13.10
2018-12-19T05:10:42.455Z,12.17
2018-12-19T05:13:24.445Z,12.03
2018-12-19T05:16:06.363Z,13.00
2018-12-19T05:18:48.306Z,12.57
2018-12-19T05:21:30.221Z,17.97
2018-12-19T05:24:11.975Z,16.50
2018-12-19T05:26:54.178Z,15.63
2018-12-19T05:29:35.971Z,12.40
2018-12-19T05:32:17.978Z,16.70
2018-12-19T05:34:59.965Z,16.47
2018-12-19T05:37:41.921Z,22.27
2018-12-19T05:40:24.023Z,13.77
2018-12-19T05:43:05.930Z,14.73
2018-12-19T05:45:47.925Z,12.77
2018-12-19T05:48:30.072Z,13.57
2018-12-19T05:51:12.206Z,13.60
2018-12-19T05:53:54.124Z,13.67
2018-12-19T05:56:36.457Z,14.33
2018-12-19T05:59:18.201Z,13.63
2018-12-19T06:02:00.462Z,9.77
2018-12-19T06:04:42.370Z,13.63
2018-12-19T06:07:24.534Z,16.80
2018-12-19T06:10:06.509Z,16.93
2018-12-19T06:12:48.687Z,10.67
2018-12-19T06:15:30.841Z,23.67
2018-12-19T06:18:12.469Z,15.40
2018-12-19T06:20:54.540Z,17.20
2018-12-19T06:23:36.705Z,13.87
2018-12-19T06:26:18.617Z,18.57
2018-12-19T06:29:06.884Z,9.80
2018-12-19T06:31:49.971Z,14.37
2018-12-19T06:34:32.094Z,17.37
2018-12-19T06:37:13.914Z,12.87
2018-12-19T06:39:56.086Z,12.37
2018-12-19T06:42:37.983Z,13.70
2018-12-19T06:45:19.850Z,14.80
2018-12-19T06:48:01.880Z,13.57
2018-12-19T06:50:43.829Z,13.60
2018-12-19T06:53:25.890Z,15.10
2018-12-19T06:56:07.890Z,13.03
2018-12-19T06:58:49.839Z,12.67
2018-12-19T07:01:32.201Z,11.70
2018-12-19T07:04:14.270Z,19.07
2018-12-19T07:06:56.158Z,16.80
2018-12-19T07:09:38.191Z,13.10
2018-12-19T07:12:20.270Z,17.27
2018-12-19T07:15:02.298Z,16.83
2018-12-19T07:17:44.563Z,11.53
2018-12-19T07:20:26.478Z,14.00
2018-12-19T07:23:08.269Z,8.33
2018-12-19T07:25:50.150Z,12.47
2018-12-19T07:28:32.373Z,12.03
2018-12-19T07:31:14.354Z,19.03
2018-12-19T07:33:56.436Z,13.73
2018-12-19T07:36:38.433Z,18.03
2018-12-19T07:39:20.595Z,13.17
2018-12-19T07:42:02.421Z,11.67
2018-12-19T07:44:44.561Z,12.67
2018-12-19T07:47:26.634Z,13.57
2018-12-19T07:50:08.541Z,9.27
2018-12-19T07:52:50.482Z,14.77
2018-12-19T07:55:35.917Z,13.23
2018-12-19T07:58:17.404Z,12.07
2018-12-19T08:00:59.538Z,15.93
2018-12-19T08:03:41.346Z,19.43
2018-12-19T08:06:23.646Z,18.70
2018-12-19T08:09:08.219Z,9.57
2018-12-19T08:11:50.555Z,16.70
2018-12-19T08:14:32.463Z,11.73
2018-12-19T08:17:14.254Z,16.07
2018-12-19T08:19:56.391Z,11.67
2018-12-19T08:22:38.309Z,14.07
2018-12-19T08:25:20.478Z,12.63
2018-12-19T08:28:02.676Z,13.00
2018-12-19T08:30:44.207Z,15.20
2018-12-19T08:33:26.329Z,12.97
2018-12-19T08:36:08.087Z,18.03
2018-12-19T08:38:50.234Z,11.97
2018-12-19T08:41:31.983Z,11.00
2018-12-19T08:44:14.054Z,13.10
2018-12-19T08:46:55.994Z,17.63
2018-12-19T08:49:37.965Z,14.53
2018-12-19T08:52:20.008Z,19.87
2018-12-19T08:55:01.930Z,30.33
2018-12-19T08:57:43.785Z,16.73
2018-12-19T09:00:26.060Z,15.70
2018-12-19T09:03:07.982Z,12.13
2018-12-19T09:05:50.198Z,14.97
2018-12-19T09:08:32.186Z,17.60
2018-12-19T09:11:28.759Z,13.67
2018-12-19T09:14:11.123Z,15.20
2018-12-19T09:16:53.382Z,12.97
2018-12-19T09:19:35.402Z,13.03
2018-12-19T09:22:18.126Z,19.13
2018-12-19T09:25:00.445Z,11.87
2018-12-19T09:27:42.593Z,12.13
2018-12-19T09:30:24.900Z,11.93
2018-12-19T09:33:06.474Z,14.37
2018-12-19T09:35:48.462Z,16.97
2018-12-19T09:38:31.522Z,14.23
2018-12-19T09:41:13.665Z,13.67
2018-12-19T09:43:56.551Z,12.93
2018-12-19T09:46:38.487Z,13.80
2018-12-19T09:49:20.340Z,13.83
2018-12-19T09:52:02.295Z,15.30
2018-12-19T09:54:44.293Z,18.73
2018-12-19T09:57:26.606Z,16.30
2018-12-19T10:00:14.937Z,16.23
2018-12-19T10:02:56.773Z,11.47
2018-12-19T10:05:38.618Z,13.97
2018-12-19T10:08:20.582Z,16.37
2018-12-19T10:11:02.750Z,14.23
2018-12-19T10:13:44.489Z,8.73
2018-12-19T10:16:26.662Z,17.73
2018-12-19T10:19:08.743Z,10.63
2018-12-19T10:21:51.636Z,14.87
2018-12-19T10:24:39.206Z,12.83
2018-12-19T10:27:21.552Z,13.70
2018-12-19T10:30:04.127Z,16.60
2018-12-19T10:32:47.773Z,20.43
2018-12-19T10:35:29.667Z,14.60
2018-12-19T10:38:12.054Z,10.10
2018-12-19T10:40:53.990Z,16.97
2018-12-19T10:43:35.757Z,14.07
2018-12-19T10:46:17.617Z,15.80
2018-12-19T10:48:59.682Z,15.30
2018-12-19T10:51:41.573Z,10.43
2018-12-19T10:54:23.720Z,11.40
2018-12-19T10:57:05.955Z,10.07
2018-12-19T11:00:51.025Z,10.97
2018-12-19T11:03:32.811Z,13.60
2018-12-19T11:06:14.797Z,8.33
2018-12-19T11:08:56.771Z,10.47
2018-12-19T11:11:38.877Z,8.93
2018-12-19T11:14:20.991Z,11.23
2018-12-19T11:17:02.997Z,8.50
2018-12-19T11:19:44.835Z,12.40
2018-12-19T11:22:27.100Z,10.07
2018-12-19T11:25:09.402Z,16.07
2018-12-19T11:27:51.417Z,9.00
2018-12-19T11:30:34.411Z,13.00
2018-12-19T11:33:16.449Z,14.47
2018-12-19T11:35:58.405Z,8.57
2018-12-19T11:38:40.376Z,11.23
2018-12-19T11:41:22.619Z,8.20
2018-12-19T11:44:04.794Z,14.37
2018-12-19T11:46:46.758Z,7.83
2018-12-19T11:49:28.665Z,10.43
2018-12-19T11:52:10.330Z,13.17
2018-12-19T11:54:52.396Z,10.53
2018-12-19T11:57:34.559Z,7.73
2018-12-19T12:00:16.574Z,13.50
2018-12-19T12:02:58.517Z,10.23
2018-12-19T12:05:40.490Z,12.50
2018-12-19T12:08:22.471Z,10.07
2018-12-19T12:11:04.610Z,7.37
2018-12-19T12:13:46.653Z,9.87
2018-12-19T12:16:28.560Z,14.07
2018-12-19T12:19:10.712Z,14.27
2018-12-19T12:21:52.777Z,9.17
2018-12-19T12:24:35.070Z,9.90
2018-12-19T12:27:17.054Z,11.70
2018-12-19T12:29:59.148Z,11.40
2018-12-19T12:32:41.253Z,13.93
2018-12-19T12:35:23.405Z,10.07
2018-12-19T12:38:05.115Z,12.73
2018-12-19T12:40:47.271Z,8.57
2018-12-19T12:43:29.238Z,10.70
2018-12-19T12:46:11.391Z,9.90
2018-12-19T12:48:53.358Z,9.93
2018-12-19T12:51:35.461Z,11.67
2018-12-19T12:54:17.325Z,8.30
2018-12-19T12:56:59.600Z,17.40
2018-12-19T12:59:41.652Z,6.30
2018-12-19T13:02:23.477Z,12.77
2018-12-19T13:05:05.529Z,13.00
2018-12-19T13:07:47.465Z,8.13
2018-12-19T13:10:36.072Z,6.63
2018-12-19T13:13:13.491Z,6.10
2018-12-19T13:15:55.426Z,11.63
2018-12-19T13:18:37.854Z,7.93
2018-12-19T13:21:19.691Z,5.50
2018-12-19T13:24:01.472Z,9.13
2018-12-19T13:26:43.610Z,9.50
2018-12-19T13:29:25.702Z,3.63
2018-12-19T13:32:08.712Z,10.07
2018-12-19T13:34:51.165Z,6.90
2018-12-19T13:37:32.995Z,7.43
2018-12-19T13:40:14.969Z,8.23
2018-12-19T13:42:56.857Z,9.60
2018-12-19T13:45:38.841Z,5.47
2018-12-19T13:48:20.536Z,5.20
2018-12-19T13:51:02.595Z,4.03
2018-12-19T13:53:44.532Z,6.10
2018-12-19T13:56:26.515Z,5.20
2018-12-19T13:59:09.562Z,5.60
2018-12-19T14:01:51.739Z,5.27
2018-12-19T14:04:33.931Z,6.10
2018-12-19T14:07:15.915Z,7.87
2018-12-19T14:09:57.847Z,10.83
2018-12-19T14:12:39.835Z,9.97
2018-12-19T14:15:21.758Z,6.00
2018-12-19T14:18:04.059Z,10.67
2018-12-19T14:20:46.070Z,7.83
2018-12-19T14:23:28.095Z,10.57
2018-12-19T14:26:10.115Z,8.03
2018-12-19T14:28:52.028Z,10.30
2018-12-19T14:31:33.977Z,7.17
2018-12-19T14:34:15.991Z,7.53
2018-12-19T14:36:58.144Z,9.17
2018-12-19T14:39:40.082Z,9.87
2018-12-19T14:42:22.226Z,7.30
2018-12-19T14:45:04.864Z,8.90
2018-12-19T14:47:47.262Z,9.00
2018-12-19T14:50:29.070Z,7.17
2018-12-19T14:53:11.349Z,5.80
2018-12-19T14:55:53.308Z,6.77
2018-12-19T14:58:35.147Z,5.40
2018-12-19T15:01:17.511Z,6.37
2018-12-19T15:03:59.209Z,7.93
2018-12-19T15:06:41.169Z,9.43
2018-12-19T15:09:23.493Z,8.00
2018-12-19T15:12:05.235Z,16.20
2018-12-19T15:14:47.309Z,5.47
2018-12-19T15:17:29.463Z,4.23
2018-12-19T15:20:11.381Z,9.23
2018-12-19T15:22:53.532Z,6.77
2018-12-19T15:25:35.227Z,7.37
2018-12-19T15:28:17.093Z,7.60
2018-12-19T15:30:59.021Z,9.10
2018-12-19T15:33:40.918Z,8.70
2018-12-19T15:36:23.465Z,5.93
2018-12-19T15:39:08.014Z,10.70
2018-12-19T15:41:50.482Z,14.57
2018-12-19T15:44:32.665Z,9.70
2018-12-19T15:47:14.884Z,6.70
2018-12-19T15:49:56.847Z,8.47
2018-12-19T15:52:38.577Z,5.30
2018-12-19T15:55:20.730Z,11.93
2018-12-19T15:58:02.786Z,5.87
2018-12-19T16:00:44.733Z,9.93
2018-12-19T16:03:26.743Z,5.17
2018-12-19T16:06:08.693Z,6.43
2018-12-19T16:08:50.795Z,8.90
2018-12-19T16:11:32.866Z,9.70
2018-12-19T16:14:14.772Z,8.23
2018-12-19T16:16:56.665Z,10.47
2018-12-19T16:19:38.830Z,11.53
2018-12-19T16:22:20.717Z,10.67
2018-12-19T16:25:02.676Z,7.60
2018-12-19T16:27:44.425Z,5.80
2018-12-19T16:30:26.476Z,5.27
2018-12-19T16:33:08.423Z,5.83
2018-12-19T16:35:50.494Z,7.33
2018-12-19T16:38:32.449Z,14.17
2018-12-19T16:41:14.297Z,9.20
2018-12-19T16:43:56.466Z,11.03
2018-12-19T16:46:38.337Z,27.30
2018-12-19T16:49:20.462Z,46.03
2018-12-19T16:52:02.370Z,9.03
2018-12-19T16:54:44.277Z,9.60
2018-12-19T16:57:26.246Z,17.60
2018-12-19T17:00:10.155Z,12.00
2018-12-19T17:02:52.211Z,8.43
2018-12-19T17:05:34.345Z,13.07
2018-12-19T17:08:16.162Z,11.57
2018-12-19T17:10:58.319Z,7.50
2018-12-19T17:13:40.335Z,10.60
2018-12-19T17:16:22.494Z,7.83
2018-12-19T17:19:04.467Z,9.23
2018-12-19T17:21:46.239Z,6.90
2018-12-19T17:24:33.806Z,11.33
2018-12-19T17:27:16.161Z,8.27
2018-12-19T17:29:58.266Z,14.73
2018-12-19T17:32:40.326Z,8.77
2018-12-19T17:35:22.039Z,21.03
2018-12-19T17:38:04.198Z,12.17
2018-12-19T17:40:45.883Z,14.03
2018-12-19T17:43:28.087Z,12.27
2018-12-19T17:46:10.269Z,9.90
2018-12-19T17:48:52.321Z,13.03
2018-12-19T17:51:34.114Z,11.10
2018-12-19T17:54:16.226Z,9.13
2018-12-19T17:56:58.315Z,13.93
2018-12-19T17:59:40.447Z,13.70
2018-12-19T18:02:22.977Z,14.23
2018-12-19T18:05:05.537Z,9.53
2018-12-19T18:07:47.274Z,13.37
2018-12-19T18:10:29.361Z,14.77
2018-12-19T18:13:11.332Z,14.27
2018-12-19T18:15:53.127Z,17.53
2018-12-19T18:18:35.275Z,19.13
2018-12-19T18:21:17.282Z,10.97
2018-12-19T18:23:59.408Z,16.03
2018-12-19T18:26:41.459Z,10.93
2018-12-19T18:29:23.414Z,13.60
2018-12-19T18:32:05.307Z,17.67
2018-12-19T18:34:47.403Z,19.33
2018-12-19T18:37:29.497Z,14.27
2018-12-19T18:40:11.402Z,13.67
2018-12-19T18:42:53.317Z,19.20
2018-12-19T18:45:35.380Z,14.77
2018-12-19T18:48:17.401Z,14.93
2018-12-19T18:50:59.495Z,12.87
2018-12-19T18:53:41.327Z,16.63
2018-12-19T18:56:23.539Z,16.47
2018-12-19T18:59:05.751Z,10.80
2018-12-19T19:01:47.702Z,14.67
2018-12-19T19:04:29.563Z,11.80
2018-12-19T19:07:11.566Z,16.70
2018-12-19T19:09:53.650Z,20.50
2018-12-19T19:12:35.510Z,17.23
2018-12-19T19:15:17.622Z,19.20
2018-12-19T19:17:59.637Z,17.53
2018-12-19T19:20:41.611Z,23.00
2018-12-19T19:23:23.639Z,16.27
2018-12-19T19:26:05.541Z,11.23
2018-12-19T19:28:47.806Z,12.90
2018-12-19T19:31:29.755Z,20.90
2018-12-19T19:34:11.858Z,21.17
2018-12-19T19:36:53.780Z,15.47
2018-12-19T19:39:35.814Z,17.83
2018-12-19T19:42:18.017Z,19.57
2018-12-19T19:44:59.813Z,17.33
2018-12-19T19:47:41.928Z,22.53
2018-12-19T19:50:23.839Z,16.73
2018-12-19T19:53:05.872Z,21.30
2018-12-19T19:55:47.829Z,20.60
2018-12-19T19:58:29.754Z,20.93
2018-12-19T20:01:12.627Z,27.67
2018-12-19T20:03:54.854Z,18.67
2018-12-19T20:06:36.849Z,27.97
2018-12-19T20:09:18.704Z,24.70
2018-12-19T20:12:00.854Z,23.47
2018-12-19T20:14:42.904Z,21.70
2018-12-19T20:17:27.229Z,24.10
2018-12-19T20:20:09.326Z,17.70
2018-12-19T20:22:51.091Z,17.70
2018-12-19T20:25:33.141Z,17.53
2018-12-19T20:28:45.745Z,14.23
2018-12-19T20:31:27.410Z,25.57
2018-12-19T20:34:09.510Z,28.80
2018-12-19T20:36:51.699Z,19.57
2018-12-19T20:39:33.493Z,23.60
2018-12-19T20:42:15.566Z,18.87
2018-12-19T20:44:57.597Z,20.40
2018-12-19T20:47:39.589Z,20.53
2018-12-19T20:50:21.551Z,21.43
2018-12-19T20:53:03.506Z,21.37
2018-12-19T20:55:45.365Z,18.60
2018-12-19T20:58:27.435Z,21.33
2018-12-19T21:01:09.518Z,21.60
2018-12-19T21:03:51.443Z,21.27
2018-12-19T21:06:33.234Z,17.57
2018-12-19T21:09:15.681Z,24.50
2018-12-19T21:11:57.988Z,25.13
2018-12-19T21:14:40.084Z,19.97
2018-12-19T21:17:27.510Z,21.77
2018-12-19T21:20:09.244Z,17.60
2018-12-19T21:22:51.379Z,19.00
2018-12-19T21:25:33.381Z,18.80
2018-12-19T21:28:15.406Z,27.10
2018-12-19T21:30:57.398Z,23.80
2018-12-19T21:33:39.336Z,26.97
2018-12-19T21:36:21.189Z,25.07
2018-12-19T21:39:03.259Z,27.57
2018-12-19T21:41:45.159Z,24.33
2018-12-19T21:44:27.307Z,25.20
2018-12-19T21:47:09.253Z,25.83
2018-12-19T21:49:51.489Z,23.77
2018-12-19T21:52:33.502Z,28.33
2018-12-19T21:55:16.764Z,24.87
2018-12-19T21:57:58.720Z,26.27
2018-12-19T22:00:41.219Z,23.17
2018-12-19T22:03:23.522Z,26.60
2018-12-19T22:06:05.771Z,30.47
2018-12-19T22:08:47.914Z,24.70
2018-12-19T22:11:30.080Z,24.00
2018-12-19T22:14:11.975Z,25.10
2018-12-19T22:16:59.221Z,26.47
2018-12-19T22:19:40.980Z,24.93
2018-12-19T22:22:22.998Z,22.00
2018-12-19T22:25:05.345Z,20.47
2018-12-19T22:27:46.982Z,18.93
2018-12-19T22:30:29.091Z,17.90
2018-12-19T22:33:11.192Z,25.37
2018-12-19T22:35:53.016Z,27.43
2018-12-19T22:38:35.144Z,26.97
2018-12-19T22:41:17.322Z,17.83
2018-12-19T22:43:59.050Z,23.00
2018-12-19T22:46:41.210Z,27.50
2018-12-19T22:49:23.251Z,30.67
2018-12-19T22:52:05.415Z,22.53
2018-12-19T22:54:47.224Z,24.93
2018-12-19T22:57:29.124Z,32.07
2018-12-19T23:00:16.778Z,28.17
2018-12-19T23:03:06.741Z,28.60
2018-12-19T23:05:51.079Z,30.73
2018-12-19T23:08:33.516Z,23.63
2018-12-19T23:11:15.530Z,35.93
2018-12-19T23:13:57.531Z,27.90
2018-12-19T23:16:45.737Z,30.27
2018-12-19T23:19:33.764Z,32.63
2018-12-19T23:22:21.879Z,30.30
2018-12-19T23:25:10.039Z,26.20
2018-12-19T23:27:54.114Z,31.00
2018-12-19T23:30:36.099Z,32.80
2018-12-19T23:33:18.131Z,32.90
2018-12-19T23:36:00.335Z,32.63
2018-12-19T23:38:42.180Z,43.40
2018-12-19T23:41:24.394Z,29.47
2018-12-19T23:44:06.332Z,32.43
2018-12-19T23:46:48.605Z,28.87
2018-12-19T23:49:30.394Z,30.70
2018-12-19T23:52:12.611Z,27.47
2018-12-19T23:54:54.561Z,27.57
2018-12-19T23:57:36.965Z,30.73
